sensor_id;sensor_type;location;lat;lon;timestamp;P1;durP1;ratioP1;P2;durP2;ratioP2
4222;SDS011;2125;51.436;14.138;2022-07-24T00:01:15;9.50;;;6.43;;
4222;SDS011;2125;51.436;14.138;2022-07-24T00:03:42;9.07;;;6.70;;
4222;SDS011;2125;51.436;14.138;2022-07-24T00:06:09;11.30;;;6.93;;
4222;SDS011;2125;51.436;14.138;2022-07-24T00:08:35;10.23;;;6.67;;
4222;SDS011;2125;51.436;14.138;2022-07-24T00:11:02;11.10;;;7.57;;
4222;SDS011;2125;51.436;14.138;2022-07-24T00:13:29;6.57;;;5.87;;
4222;SDS011;2125;51.436;14.138;2022-07-24T00:15:57;8.83;;;5.87;;
4222;SDS011;2125;51.436;14.138;2022-07-24T00:18:23;10.03;;;6.23;;
4222;SDS011;2125;51.436;14.138;2022-07-24T00:20:50;7.30;;;5.87;;
4222;SDS011;2125;51.436;14.138;2022-07-24T00:23:16;8.90;;;5.93;;
4222;SDS011;2125;51.436;14.138;2022-07-24T00:25:43;8.10;;;6.00;;
4222;SDS011;2125;51.436;14.138;2022-07-24T00:28:09;7.77;;;6.03;;
4222;SDS011;2125;51.436;14.138;2022-07-24T00:30:36;8.23;;;6.60;;
4222;SDS011;2125;51.436;14.138;2022-07-24T00:33:04;7.33;;;6.03;;
4222;SDS011;2125;51.436;14.138;2022-07-24T00:35:31;10.20;;;6.20;;
4222;SDS011;2125;51.436;14.138;2022-07-24T00:37:57;9.97;;;6.83;;
4222;SDS011;2125;51.436;14.138;2022-07-24T00:40:24;7.17;;;5.87;;
4222;SDS011;2125;51.436;14.138;2022-07-24T00:42:51;8.10;;;6.17;;
4222;SDS011;2125;51.436;14.138;2022-07-24T00:45:18;9.00;;;6.83;;
4222;SDS011;2125;51.436;14.138;2022-07-24T00:47:45;8.83;;;7.30;;
4222;SDS011;2125;51.436;14.138;2022-07-24T00:50:12;9.17;;;6.70;;
4222;SDS011;2125;51.436;14.138;2022-07-24T00:52:39;6.97;;;6.00;;
4222;SDS011;2125;51.436;14.138;2022-07-24T00:55:06;8.70;;;7.10;;
4222;SDS011;2125;51.436;14.138;2022-07-24T00:57:34;9.50;;;7.17;;
4222;SDS011;2125;51.436;14.138;2022-07-24T01:00:00;10.10;;;6.73;;
4222;SDS011;2125;51.436;14.138;2022-07-24T01:02:28;11.80;;;7.07;;
4222;SDS011;2125;51.436;14.138;2022-07-24T01:04:55;8.83;;;7.10;;
4222;SDS011;2125;51.436;14.138;2022-07-24T01:07:23;11.00;;;6.73;;
4222;SDS011;2125;51.436;14.138;2022-07-24T01:09:50;8.57;;;6.63;;
4222;SDS011;2125;51.436;14.138;2022-07-24T01:12:17;8.50;;;6.77;;
4222;SDS011;2125;51.436;14.138;2022-07-24T01:14:43;8.10;;;6.63;;
4222;SDS011;2125;51.436;14.138;2022-07-24T01:17:10;11.83;;;6.90;;
4222;SDS011;2125;51.436;14.138;2022-07-24T01:19:37;10.80;;;7.50;;
4222;SDS011;2125;51.436;14.138;2022-07-24T01:22:05;10.23;;;7.13;;
4222;SDS011;2125;51.436;14.138;2022-07-24T01:24:31;8.60;;;6.60;;
4222;SDS011;2125;51.436;14.138;2022-07-24T01:26:59;9.77;;;7.20;;
4222;SDS011;2125;51.436;14.138;2022-07-24T01:29:25;12.43;;;6.90;;
4222;SDS011;2125;51.436;14.138;2022-07-24T01:31:52;9.97;;;7.37;;
4222;SDS011;2125;51.436;14.138;2022-07-24T01:34:18;8.00;;;6.30;;
4222;SDS011;2125;51.436;14.138;2022-07-24T01:36:45;9.53;;;7.30;;
4222;SDS011;2125;51.436;14.138;2022-07-24T01:39:13;8.93;;;6.80;;
4222;SDS011;2125;51.436;14.138;2022-07-24T01:41:40;11.00;;;6.63;;
4222;SDS011;2125;51.436;14.138;2022-07-24T01:44:06;9.77;;;6.30;;
4222;SDS011;2125;51.436;14.138;2022-07-24T01:46:33;10.50;;;7.40;;
4222;SDS011;2125;51.436;14.138;2022-07-24T01:49:00;11.33;;;7.40;;
4222;SDS011;2125;51.436;14.138;2022-07-24T01:51:26;9.47;;;6.87;;
4222;SDS011;2125;51.436;14.138;2022-07-24T01:53:53;7.60;;;6.60;;
4222;SDS011;2125;51.436;14.138;2022-07-24T01:56:21;16.10;;;7.40;;
4222;SDS011;2125;51.436;14.138;2022-07-24T01:58:47;9.03;;;6.80;;
4222;SDS011;2125;51.436;14.138;2022-07-24T02:01:14;8.47;;;6.80;;
4222;SDS011;2125;51.436;14.138;2022-07-24T02:03:41;8.53;;;6.53;;
4222;SDS011;2125;51.436;14.138;2022-07-24T02:06:07;8.00;;;6.67;;
4222;SDS011;2125;51.436;14.138;2022-07-24T02:08:34;8.40;;;6.33;;
4222;SDS011;2125;51.436;14.138;2022-07-24T02:11:00;8.77;;;6.90;;
4222;SDS011;2125;51.436;14.138;2022-07-24T02:13:28;9.07;;;6.90;;
4222;SDS011;2125;51.436;14.138;2022-07-24T02:15:55;10.73;;;6.90;;
4222;SDS011;2125;51.436;14.138;2022-07-24T02:18:22;9.50;;;6.33;;
4222;SDS011;2125;51.436;14.138;2022-07-24T02:20:48;8.53;;;6.60;;
4222;SDS011;2125;51.436;14.138;2022-07-24T02:23:15;10.80;;;7.27;;
4222;SDS011;2125;51.436;14.138;2022-07-24T02:25:43;8.90;;;7.10;;
4222;SDS011;2125;51.436;14.138;2022-07-24T02:28:10;8.20;;;6.07;;
4222;SDS011;2125;51.436;14.138;2022-07-24T02:30:38;8.33;;;6.63;;
4222;SDS011;2125;51.436;14.138;2022-07-24T02:33:05;11.73;;;7.10;;
4222;SDS011;2125;51.436;14.138;2022-07-24T02:35:32;8.47;;;6.50;;
4222;SDS011;2125;51.436;14.138;2022-07-24T02:37:59;9.30;;;6.63;;
4222;SDS011;2125;51.436;14.138;2022-07-24T02:40:26;7.80;;;6.40;;
4222;SDS011;2125;51.436;14.138;2022-07-24T02:42:54;11.60;;;7.00;;
4222;SDS011;2125;51.436;14.138;2022-07-24T02:45:20;9.50;;;7.00;;
4222;SDS011;2125;51.436;14.138;2022-07-24T02:47:49;10.77;;;7.00;;
4222;SDS011;2125;51.436;14.138;2022-07-24T02:50:17;9.10;;;7.23;;
4222;SDS011;2125;51.436;14.138;2022-07-24T02:52:45;9.10;;;6.70;;
4222;SDS011;2125;51.436;14.138;2022-07-24T02:55:11;13.60;;;6.83;;
4222;SDS011;2125;51.436;14.138;2022-07-24T02:57:38;9.60;;;7.23;;
4222;SDS011;2125;51.436;14.138;2022-07-24T03:00:07;9.00;;;6.97;;
4222;SDS011;2125;51.436;14.138;2022-07-24T03:02:36;9.77;;;6.50;;
4222;SDS011;2125;51.436;14.138;2022-07-24T03:05:04;9.73;;;7.00;;
4222;SDS011;2125;51.436;14.138;2022-07-24T03:07:31;8.53;;;6.67;;
4222;SDS011;2125;51.436;14.138;2022-07-24T03:09:58;8.77;;;7.00;;
4222;SDS011;2125;51.436;14.138;2022-07-24T03:12:25;10.43;;;7.00;;
4222;SDS011;2125;51.436;14.138;2022-07-24T03:14:51;11.13;;;7.20;;
4222;SDS011;2125;51.436;14.138;2022-07-24T03:17:18;12.77;;;6.90;;
4222;SDS011;2125;51.436;14.138;2022-07-24T03:19:44;9.10;;;7.23;;
4222;SDS011;2125;51.436;14.138;2022-07-24T03:22:12;10.10;;;6.90;;
4222;SDS011;2125;51.436;14.138;2022-07-24T03:24:39;11.40;;;7.17;;
4222;SDS011;2125;51.436;14.138;2022-07-24T03:27:06;9.37;;;7.23;;
4222;SDS011;2125;51.436;14.138;2022-07-24T03:29:32;9.27;;;7.37;;
4222;SDS011;2125;51.436;14.138;2022-07-24T03:31:59;10.60;;;7.40;;
4222;SDS011;2125;51.436;14.138;2022-07-24T03:34:26;9.67;;;6.90;;
4222;SDS011;2125;51.436;14.138;2022-07-24T03:36:53;10.50;;;7.10;;
4222;SDS011;2125;51.436;14.138;2022-07-24T03:39:21;10.63;;;6.97;;
4222;SDS011;2125;51.436;14.138;2022-07-24T03:41:47;10.00;;;7.73;;
4222;SDS011;2125;51.436;14.138;2022-07-24T03:44:16;13.90;;;7.13;;
4222;SDS011;2125;51.436;14.138;2022-07-24T03:46:43;11.13;;;7.20;;
4222;SDS011;2125;51.436;14.138;2022-07-24T03:49:09;10.40;;;7.40;;
4222;SDS011;2125;51.436;14.138;2022-07-24T03:51:36;11.03;;;8.03;;
4222;SDS011;2125;51.436;14.138;2022-07-24T03:54:03;8.50;;;6.90;;
4222;SDS011;2125;51.436;14.138;2022-07-24T03:56:31;13.20;;;7.17;;
4222;SDS011;2125;51.436;14.138;2022-07-24T03:58:57;9.17;;;7.10;;
4222;SDS011;2125;51.436;14.138;2022-07-24T04:01:24;11.03;;;7.73;;
4222;SDS011;2125;51.436;14.138;2022-07-24T04:03:51;11.73;;;8.10;;
4222;SDS011;2125;51.436;14.138;2022-07-24T04:06:17;10.00;;;7.30;;
4222;SDS011;2125;51.436;14.138;2022-07-24T04:08:44;12.20;;;8.23;;
4222;SDS011;2125;51.436;14.138;2022-07-24T04:11:13;10.07;;;8.30;;
4222;SDS011;2125;51.436;14.138;2022-07-24T04:13:41;10.43;;;7.50;;
4222;SDS011;2125;51.436;14.138;2022-07-24T04:16:07;10.13;;;7.60;;
4222;SDS011;2125;51.436;14.138;2022-07-24T04:18:34;9.70;;;6.70;;
4222;SDS011;2125;51.436;14.138;2022-07-24T04:21:00;10.23;;;6.90;;
4222;SDS011;2125;51.436;14.138;2022-07-24T04:23:27;8.00;;;6.80;;
4222;SDS011;2125;51.436;14.138;2022-07-24T04:25:54;8.47;;;6.50;;
4222;SDS011;2125;51.436;14.138;2022-07-24T04:28:20;8.37;;;6.47;;
4222;SDS011;2125;51.436;14.138;2022-07-24T04:30:48;10.63;;;6.57;;
4222;SDS011;2125;51.436;14.138;2022-07-24T04:33:15;7.90;;;6.23;;
4222;SDS011;2125;51.436;14.138;2022-07-24T04:35:41;9.33;;;6.87;;
4222;SDS011;2125;51.436;14.138;2022-07-24T04:38:08;7.17;;;6.20;;
4222;SDS011;2125;51.436;14.138;2022-07-24T04:40:35;6.90;;;6.20;;
4222;SDS011;2125;51.436;14.138;2022-07-24T04:43:01;6.93;;;6.23;;
4222;SDS011;2125;51.436;14.138;2022-07-24T04:45:28;8.40;;;6.37;;
4222;SDS011;2125;51.436;14.138;2022-07-24T04:47:56;13.93;;;7.43;;
4222;SDS011;2125;51.436;14.138;2022-07-24T04:50:22;9.17;;;7.10;;
4222;SDS011;2125;51.436;14.138;2022-07-24T04:52:49;12.80;;;7.40;;
4222;SDS011;2125;51.436;14.138;2022-07-24T04:55:16;10.33;;;7.13;;
4222;SDS011;2125;51.436;14.138;2022-07-24T04:57:42;8.83;;;7.53;;
4222;SDS011;2125;51.436;14.138;2022-07-24T05:00:10;11.60;;;6.70;;
4222;SDS011;2125;51.436;14.138;2022-07-24T05:02:38;9.40;;;6.47;;
4222;SDS011;2125;51.436;14.138;2022-07-24T05:05:06;11.53;;;7.20;;
4222;SDS011;2125;51.436;14.138;2022-07-24T05:07:33;8.37;;;6.30;;
4222;SDS011;2125;51.436;14.138;2022-07-24T05:10:00;6.90;;;5.90;;
4222;SDS011;2125;51.436;14.138;2022-07-24T05:12:27;8.97;;;6.10;;
4222;SDS011;2125;51.436;14.138;2022-07-24T05:14:53;7.80;;;5.80;;
4222;SDS011;2125;51.436;14.138;2022-07-24T05:17:20;7.97;;;5.70;;
4222;SDS011;2125;51.436;14.138;2022-07-24T05:19:47;6.47;;;5.07;;
4222;SDS011;2125;51.436;14.138;2022-07-24T05:22:15;5.77;;;5.13;;
4222;SDS011;2125;51.436;14.138;2022-07-24T05:24:41;5.70;;;4.83;;
4222;SDS011;2125;51.436;14.138;2022-07-24T05:27:08;5.60;;;4.87;;
4222;SDS011;2125;51.436;14.138;2022-07-24T05:29:35;6.30;;;4.70;;
4222;SDS011;2125;51.436;14.138;2022-07-24T05:32:02;6.27;;;4.30;;
4222;SDS011;2125;51.436;14.138;2022-07-24T05:34:28;4.60;;;4.20;;
4222;SDS011;2125;51.436;14.138;2022-07-24T05:36:55;5.77;;;4.20;;
4222;SDS011;2125;51.436;14.138;2022-07-24T05:39:23;4.30;;;3.90;;
4222;SDS011;2125;51.436;14.138;2022-07-24T05:41:50;4.97;;;3.80;;
4222;SDS011;2125;51.436;14.138;2022-07-24T05:44:16;4.10;;;3.70;;
4222;SDS011;2125;51.436;14.138;2022-07-24T05:46:43;5.00;;;4.13;;
4222;SDS011;2125;51.436;14.138;2022-07-24T05:49:09;4.13;;;3.73;;
4222;SDS011;2125;51.436;14.138;2022-07-24T05:51:36;4.07;;;3.27;;
4222;SDS011;2125;51.436;14.138;2022-07-24T05:54:03;4.37;;;3.97;;
4222;SDS011;2125;51.436;14.138;2022-07-24T05:56:31;3.87;;;3.47;;
4222;SDS011;2125;51.436;14.138;2022-07-24T05:58:58;5.40;;;3.43;;
4222;SDS011;2125;51.436;14.138;2022-07-24T06:01:24;3.40;;;3.10;;
4222;SDS011;2125;51.436;14.138;2022-07-24T06:03:51;3.73;;;2.90;;
4222;SDS011;2125;51.436;14.138;2022-07-24T06:06:17;3.77;;;2.80;;
4222;SDS011;2125;51.436;14.138;2022-07-24T06:08:44;4.20;;;2.70;;
4222;SDS011;2125;51.436;14.138;2022-07-24T06:11:11;4.63;;;2.40;;
4222;SDS011;2125;51.436;14.138;2022-07-24T06:13:39;2.50;;;2.30;;
4222;SDS011;2125;51.436;14.138;2022-07-24T06:16:06;2.30;;;2.10;;
4222;SDS011;2125;51.436;14.138;2022-07-24T06:18:32;5.00;;;2.80;;
4222;SDS011;2125;51.436;14.138;2022-07-24T06:20:59;3.33;;;2.70;;
4222;SDS011;2125;51.436;14.138;2022-07-24T06:23:26;2.60;;;2.40;;
4222;SDS011;2125;51.436;14.138;2022-07-24T06:25:53;2.53;;;2.33;;
4222;SDS011;2125;51.436;14.138;2022-07-24T06:28:19;3.47;;;2.70;;
4222;SDS011;2125;51.436;14.138;2022-07-24T06:30:47;2.70;;;2.50;;
4222;SDS011;2125;51.436;14.138;2022-07-24T06:33:15;3.80;;;2.20;;
4222;SDS011;2125;51.436;14.138;2022-07-24T06:35:42;7.20;;;2.73;;
4222;SDS011;2125;51.436;14.138;2022-07-24T06:38:08;4.17;;;2.73;;
4222;SDS011;2125;51.436;14.138;2022-07-24T06:40:35;5.07;;;2.37;;
4222;SDS011;2125;51.436;14.138;2022-07-24T06:43:02;2.43;;;2.10;;
4222;SDS011;2125;51.436;14.138;2022-07-24T06:45:29;3.97;;;2.10;;
4222;SDS011;2125;51.436;14.138;2022-07-24T06:47:58;3.20;;;1.87;;
4222;SDS011;2125;51.436;14.138;2022-07-24T06:50:25;2.40;;;1.87;;
4222;SDS011;2125;51.436;14.138;2022-07-24T06:52:52;2.73;;;1.60;;
4222;SDS011;2125;51.436;14.138;2022-07-24T06:55:18;2.40;;;1.73;;
4222;SDS011;2125;51.436;14.138;2022-07-24T06:57:45;1.73;;;1.37;;
4222;SDS011;2125;51.436;14.138;2022-07-24T07:00:12;3.13;;;1.57;;
4222;SDS011;2125;51.436;14.138;2022-07-24T07:02:39;3.53;;;1.93;;
4222;SDS011;2125;51.436;14.138;2022-07-24T07:05:08;2.20;;;1.97;;
4222;SDS011;2125;51.436;14.138;2022-07-24T07:07:35;2.40;;;1.67;;
4222;SDS011;2125;51.436;14.138;2022-07-24T07:10:02;3.17;;;1.50;;
4222;SDS011;2125;51.436;14.138;2022-07-24T07:12:29;2.70;;;1.30;;
4222;SDS011;2125;51.436;14.138;2022-07-24T07:14:56;1.73;;;1.40;;
4222;SDS011;2125;51.436;14.138;2022-07-24T07:17:24;1.73;;;1.63;;
4222;SDS011;2125;51.436;14.138;2022-07-24T07:19:51;1.87;;;1.77;;
4222;SDS011;2125;51.436;14.138;2022-07-24T07:22:21;2.00;;;1.60;;
4222;SDS011;2125;51.436;14.138;2022-07-24T07:24:47;2.60;;;2.30;;
4222;SDS011;2125;51.436;14.138;2022-07-24T07:27:14;2.30;;;1.30;;
4222;SDS011;2125;51.436;14.138;2022-07-24T07:29:41;2.93;;;1.37;;
4222;SDS011;2125;51.436;14.138;2022-07-24T07:32:07;2.60;;;1.10;;
4222;SDS011;2125;51.436;14.138;2022-07-24T07:34:34;4.10;;;1.10;;
4222;SDS011;2125;51.436;14.138;2022-07-24T07:37:01;1.60;;;1.37;;
4222;SDS011;2125;51.436;14.138;2022-07-24T07:39:28;1.77;;;1.50;;
4222;SDS011;2125;51.436;14.138;2022-07-24T07:41:55;2.00;;;1.30;;
4222;SDS011;2125;51.436;14.138;2022-07-24T07:44:23;1.93;;;1.13;;
4222;SDS011;2125;51.436;14.138;2022-07-24T07:46:50;3.13;;;1.80;;
4222;SDS011;2125;51.436;14.138;2022-07-24T07:49:17;1.50;;;1.40;;
4222;SDS011;2125;51.436;14.138;2022-07-24T07:51:44;1.80;;;1.60;;
4222;SDS011;2125;51.436;14.138;2022-07-24T07:54:12;2.53;;;1.37;;
4222;SDS011;2125;51.436;14.138;2022-07-24T07:56:41;6.23;;;1.70;;
4222;SDS011;2125;51.436;14.138;2022-07-24T07:59:10;1.73;;;1.37;;
4222;SDS011;2125;51.436;14.138;2022-07-24T08:01:37;1.50;;;1.40;;
4222;SDS011;2125;51.436;14.138;2022-07-24T08:04:08;4.73;;;1.30;;
4222;SDS011;2125;51.436;14.138;2022-07-24T08:06:36;1.40;;;1.30;;
4222;SDS011;2125;51.436;14.138;2022-07-24T08:09:03;1.70;;;1.40;;
4222;SDS011;2125;51.436;14.138;2022-07-24T08:11:30;2.77;;;1.50;;
4222;SDS011;2125;51.436;14.138;2022-07-24T08:13:57;2.07;;;1.40;;
4222;SDS011;2125;51.436;14.138;2022-07-24T08:16:25;1.23;;;1.13;;
4222;SDS011;2125;51.436;14.138;2022-07-24T08:18:53;1.93;;;1.67;;
4222;SDS011;2125;51.436;14.138;2022-07-24T08:21:20;1.60;;;1.43;;
4222;SDS011;2125;51.436;14.138;2022-07-24T08:23:47;1.37;;;1.27;;
4222;SDS011;2125;51.436;14.138;2022-07-24T08:26:14;2.07;;;1.40;;
4222;SDS011;2125;51.436;14.138;2022-07-24T08:28:41;4.33;;;1.23;;
4222;SDS011;2125;51.436;14.138;2022-07-24T08:31:09;1.97;;;1.30;;
4222;SDS011;2125;51.436;14.138;2022-07-24T08:33:36;1.47;;;1.37;;
4222;SDS011;2125;51.436;14.138;2022-07-24T08:36:03;2.30;;;1.40;;
4222;SDS011;2125;51.436;14.138;2022-07-24T08:38:30;1.60;;;1.50;;
4222;SDS011;2125;51.436;14.138;2022-07-24T08:40:56;2.97;;;1.13;;
4222;SDS011;2125;51.436;14.138;2022-07-24T08:43:23;2.47;;;1.30;;
4222;SDS011;2125;51.436;14.138;2022-07-24T08:45:50;2.83;;;1.40;;
4222;SDS011;2125;51.436;14.138;2022-07-24T08:50:55;1.37;;;1.27;;
4222;SDS011;2125;51.436;14.138;2022-07-24T08:53:24;1.93;;;1.30;;
4222;SDS011;2125;51.436;14.138;2022-07-24T08:55:51;1.60;;;1.27;;
4222;SDS011;2125;51.436;14.138;2022-07-24T08:58:17;1.67;;;1.20;;
4222;SDS011;2125;51.436;14.138;2022-07-24T09:00:44;2.03;;;1.20;;
4222;SDS011;2125;51.436;14.138;2022-07-24T09:03:11;1.40;;;1.30;;
4222;SDS011;2125;51.436;14.138;2022-07-24T09:05:53;1.50;;;1.10;;
4222;SDS011;2125;51.436;14.138;2022-07-24T09:08:21;1.50;;;1.20;;
4222;SDS011;2125;51.436;14.138;2022-07-24T09:10:55;1.17;;;1.07;;
4222;SDS011;2125;51.436;14.138;2022-07-24T09:13:25;1.53;;;1.27;;
4222;SDS011;2125;51.436;14.138;2022-07-24T09:15:54;1.40;;;1.13;;
4222;SDS011;2125;51.436;14.138;2022-07-24T09:18:25;1.40;;;1.30;;
4222;SDS011;2125;51.436;14.138;2022-07-24T09:20:54;1.97;;;1.40;;
4222;SDS011;2125;51.436;14.138;2022-07-24T09:23:28;1.90;;;1.37;;
4222;SDS011;2125;51.436;14.138;2022-07-24T09:25:55;1.10;;;1.00;;
4222;SDS011;2125;51.436;14.138;2022-07-24T09:28:21;2.37;;;1.50;;
4222;SDS011;2125;51.436;14.138;2022-07-24T09:30:48;1.33;;;1.00;;
4222;SDS011;2125;51.436;14.138;2022-07-24T09:33:15;2.13;;;1.10;;
4222;SDS011;2125;51.436;14.138;2022-07-24T09:35:43;1.13;;;1.03;;
4222;SDS011;2125;51.436;14.138;2022-07-24T09:38:14;1.00;;;0.90;;
4222;SDS011;2125;51.436;14.138;2022-07-24T09:40:43;1.23;;;1.00;;
4222;SDS011;2125;51.436;14.138;2022-07-24T09:43:14;1.30;;;1.20;;
4222;SDS011;2125;51.436;14.138;2022-07-24T09:45:53;1.20;;;1.10;;
4222;SDS011;2125;51.436;14.138;2022-07-24T09:48:21;1.20;;;1.10;;
4222;SDS011;2125;51.436;14.138;2022-07-24T09:50:49;1.40;;;1.10;;
4222;SDS011;2125;51.436;14.138;2022-07-24T09:53:20;3.07;;;1.43;;
4222;SDS011;2125;51.436;14.138;2022-07-24T09:55:57;1.03;;;0.93;;
4222;SDS011;2125;51.436;14.138;2022-07-24T09:58:25;1.20;;;1.10;;
4222;SDS011;2125;51.436;14.138;2022-07-24T10:00:53;2.47;;;1.00;;
4222;SDS011;2125;51.436;14.138;2022-07-24T10:03:23;8.00;;;1.23;;
4222;SDS011;2125;51.436;14.138;2022-07-24T10:05:56;1.17;;;1.00;;
4222;SDS011;2125;51.436;14.138;2022-07-24T10:08:27;2.00;;;1.23;;
4222;SDS011;2125;51.436;14.138;2022-07-24T10:10:54;1.20;;;1.10;;
4222;SDS011;2125;51.436;14.138;2022-07-24T10:13:22;2.20;;;1.23;;
4222;SDS011;2125;51.436;14.138;2022-07-24T10:16:08;1.17;;;1.07;;
4222;SDS011;2125;51.436;14.138;2022-07-24T10:19:04;1.40;;;1.10;;
4222;SDS011;2125;51.436;14.138;2022-07-24T10:24:12;1.20;;;1.10;;
4222;SDS011;2125;51.436;14.138;2022-07-24T10:27:02;1.40;;;1.30;;
4222;SDS011;2125;51.436;14.138;2022-07-24T10:29:31;1.30;;;1.20;;
4222;SDS011;2125;51.436;14.138;2022-07-24T10:32:00;2.10;;;1.27;;
4222;SDS011;2125;51.436;14.138;2022-07-24T10:34:36;1.50;;;1.30;;
4222;SDS011;2125;51.436;14.138;2022-07-24T10:37:11;1.70;;;1.30;;
4222;SDS011;2125;51.436;14.138;2022-07-24T10:39:58;1.57;;;1.13;;
4222;SDS011;2125;51.436;14.138;2022-07-24T10:45:39;1.30;;;1.20;;
4222;SDS011;2125;51.436;14.138;2022-07-24T10:51:04;1.43;;;1.17;;
4222;SDS011;2125;51.436;14.138;2022-07-24T10:53:52;1.57;;;1.40;;
4222;SDS011;2125;51.436;14.138;2022-07-24T10:56:24;2.83;;;1.20;;
4222;SDS011;2125;51.436;14.138;2022-07-24T10:59:01;1.30;;;1.20;;
4222;SDS011;2125;51.436;14.138;2022-07-24T11:01:38;1.47;;;1.20;;
4222;SDS011;2125;51.436;14.138;2022-07-24T11:06:55;1.70;;;1.40;;
4222;SDS011;2125;51.436;14.138;2022-07-24T11:09:26;1.60;;;1.40;;
4222;SDS011;2125;51.436;14.138;2022-07-24T11:12:06;1.80;;;1.33;;
4222;SDS011;2125;51.436;14.138;2022-07-24T11:14:49;1.60;;;1.30;;
4222;SDS011;2125;51.436;14.138;2022-07-24T11:20:04;1.77;;;1.40;;
4222;SDS011;2125;51.436;14.138;2022-07-24T11:22:37;1.30;;;1.20;;
4222;SDS011;2125;51.436;14.138;2022-07-24T11:25:12;1.37;;;1.23;;
4222;SDS011;2125;51.436;14.138;2022-07-24T11:27:43;2.20;;;1.43;;
4222;SDS011;2125;51.436;14.138;2022-07-24T11:30:12;4.83;;;1.40;;
4222;SDS011;2125;51.436;14.138;2022-07-24T11:32:39;1.40;;;1.30;;
4222;SDS011;2125;51.436;14.138;2022-07-24T11:35:07;3.17;;;1.57;;
4222;SDS011;2125;51.436;14.138;2022-07-24T11:37:36;1.40;;;1.30;;
4222;SDS011;2125;51.436;14.138;2022-07-24T11:40:04;2.33;;;1.60;;
4222;SDS011;2125;51.436;14.138;2022-07-24T11:42:32;1.40;;;1.30;;
4222;SDS011;2125;51.436;14.138;2022-07-24T11:45:02;1.90;;;1.40;;
4222;SDS011;2125;51.436;14.138;2022-07-24T11:47:30;2.27;;;1.87;;
4222;SDS011;2125;51.436;14.138;2022-07-24T11:49:58;1.60;;;1.50;;
4222;SDS011;2125;51.436;14.138;2022-07-24T11:52:28;1.60;;;1.50;;
4222;SDS011;2125;51.436;14.138;2022-07-24T11:54:58;2.40;;;1.70;;
4222;SDS011;2125;51.436;14.138;2022-07-24T11:57:31;1.40;;;1.30;;
4222;SDS011;2125;51.436;14.138;2022-07-24T12:02:42;1.80;;;1.47;;
4222;SDS011;2125;51.436;14.138;2022-07-24T12:05:22;2.07;;;1.73;;
4222;SDS011;2125;51.436;14.138;2022-07-24T12:10:29;1.97;;;1.67;;
4222;SDS011;2125;51.436;14.138;2022-07-24T12:12:56;1.63;;;1.53;;
4222;SDS011;2125;51.436;14.138;2022-07-24T12:15:25;1.60;;;1.50;;
4222;SDS011;2125;51.436;14.138;2022-07-24T12:17:53;1.57;;;1.47;;
4222;SDS011;2125;51.436;14.138;2022-07-24T12:20:32;3.00;;;2.07;;
4222;SDS011;2125;51.436;14.138;2022-07-24T12:23:13;3.00;;;2.00;;
4222;SDS011;2125;51.436;14.138;2022-07-24T12:25:43;2.07;;;1.87;;
4222;SDS011;2125;51.436;14.138;2022-07-24T12:28:11;2.40;;;1.70;;
4222;SDS011;2125;51.436;14.138;2022-07-24T12:30:40;4.20;;;1.70;;
4222;SDS011;2125;51.436;14.138;2022-07-24T12:33:09;2.60;;;2.00;;
4222;SDS011;2125;51.436;14.138;2022-07-24T12:35:52;3.27;;;2.20;;
4222;SDS011;2125;51.436;14.138;2022-07-24T12:38:24;3.00;;;1.80;;
4222;SDS011;2125;51.436;14.138;2022-07-24T12:41:00;5.30;;;1.50;;
4222;SDS011;2125;51.436;14.138;2022-07-24T12:43:29;2.70;;;1.83;;
4222;SDS011;2125;51.436;14.138;2022-07-24T12:46:07;2.23;;;2.03;;
4222;SDS011;2125;51.436;14.138;2022-07-24T12:48:35;2.67;;;1.60;;
4222;SDS011;2125;51.436;14.138;2022-07-24T12:51:03;2.37;;;2.10;;
4222;SDS011;2125;51.436;14.138;2022-07-24T12:53:33;2.00;;;1.80;;
4222;SDS011;2125;51.436;14.138;2022-07-24T12:58:49;2.10;;;1.90;;
4222;SDS011;2125;51.436;14.138;2022-07-24T13:01:18;1.70;;;1.50;;
4222;SDS011;2125;51.436;14.138;2022-07-24T13:03:52;3.27;;;1.80;;
4222;SDS011;2125;51.436;14.138;2022-07-24T13:07:03;3.43;;;1.83;;
4222;SDS011;2125;51.436;14.138;2022-07-24T13:09:33;1.70;;;1.60;;
4222;SDS011;2125;51.436;14.138;2022-07-24T13:12:00;3.80;;;1.63;;
4222;SDS011;2125;51.436;14.138;2022-07-24T13:14:27;1.73;;;1.63;;
4222;SDS011;2125;51.436;14.138;2022-07-24T13:17:06;4.70;;;1.97;;
4222;SDS011;2125;51.436;14.138;2022-07-24T13:19:55;2.43;;;1.90;;
4222;SDS011;2125;51.436;14.138;2022-07-24T13:22:28;1.70;;;1.60;;
4222;SDS011;2125;51.436;14.138;2022-07-24T13:24:55;1.70;;;1.60;;
4222;SDS011;2125;51.436;14.138;2022-07-24T13:27:21;1.77;;;1.53;;
4222;SDS011;2125;51.436;14.138;2022-07-24T13:29:50;3.20;;;2.00;;
4222;SDS011;2125;51.436;14.138;2022-07-24T13:32:18;2.47;;;2.10;;
4222;SDS011;2125;51.436;14.138;2022-07-24T13:34:45;3.23;;;2.00;;
4222;SDS011;2125;51.436;14.138;2022-07-24T13:37:12;2.53;;;2.00;;
4222;SDS011;2125;51.436;14.138;2022-07-24T13:39:41;2.13;;;1.93;;
4222;SDS011;2125;51.436;14.138;2022-07-24T13:42:08;2.40;;;2.20;;
4222;SDS011;2125;51.436;14.138;2022-07-24T13:44:35;1.70;;;1.60;;
4222;SDS011;2125;51.436;14.138;2022-07-24T13:47:02;2.17;;;2.00;;
4222;SDS011;2125;51.436;14.138;2022-07-24T13:49:30;1.63;;;1.53;;
4222;SDS011;2125;51.436;14.138;2022-07-24T13:51:57;2.27;;;1.87;;
4222;SDS011;2125;51.436;14.138;2022-07-24T13:54:24;2.07;;;1.87;;
4222;SDS011;2125;51.436;14.138;2022-07-24T13:56:51;1.70;;;1.60;;
4222;SDS011;2125;51.436;14.138;2022-07-24T13:59:18;2.43;;;1.70;;
4222;SDS011;2125;51.436;14.138;2022-07-24T14:01:45;1.90;;;1.80;;
4222;SDS011;2125;51.436;14.138;2022-07-24T14:04:12;5.00;;;1.97;;
4222;SDS011;2125;51.436;14.138;2022-07-24T14:06:41;3.43;;;2.00;;
4222;SDS011;2125;51.436;14.138;2022-07-24T14:09:07;2.20;;;1.67;;
4222;SDS011;2125;51.436;14.138;2022-07-24T14:11:34;1.73;;;1.63;;
4222;SDS011;2125;51.436;14.138;2022-07-24T14:14:02;2.93;;;1.80;;
4222;SDS011;2125;51.436;14.138;2022-07-24T14:16:29;2.13;;;1.40;;
4222;SDS011;2125;51.436;14.138;2022-07-24T14:18:56;1.70;;;1.53;;
4222;SDS011;2125;51.436;14.138;2022-07-24T14:21:22;2.37;;;1.70;;
4222;SDS011;2125;51.436;14.138;2022-07-24T14:23:50;2.20;;;1.60;;
4222;SDS011;2125;51.436;14.138;2022-07-24T14:26:17;1.93;;;1.73;;
4222;SDS011;2125;51.436;14.138;2022-07-24T14:28:44;1.67;;;1.57;;
4222;SDS011;2125;51.436;14.138;2022-07-24T14:31:10;1.83;;;1.73;;
4222;SDS011;2125;51.436;14.138;2022-07-24T14:33:38;2.10;;;1.57;;
4222;SDS011;2125;51.436;14.138;2022-07-24T14:36:05;2.10;;;1.57;;
4222;SDS011;2125;51.436;14.138;2022-07-24T14:38:32;2.70;;;1.77;;
4222;SDS011;2125;51.436;14.138;2022-07-24T14:41:00;1.53;;;1.43;;
4222;SDS011;2125;51.436;14.138;2022-07-24T14:43:27;1.80;;;1.70;;
4222;SDS011;2125;51.436;14.138;2022-07-24T14:45:53;1.77;;;1.67;;
4222;SDS011;2125;51.436;14.138;2022-07-24T14:48:23;3.23;;;1.80;;
4222;SDS011;2125;51.436;14.138;2022-07-24T14:50:49;1.93;;;1.70;;
4222;SDS011;2125;51.436;14.138;2022-07-24T14:53:16;2.60;;;2.00;;
4222;SDS011;2125;51.436;14.138;2022-07-24T14:55:43;1.73;;;1.63;;
4222;SDS011;2125;51.436;14.138;2022-07-24T14:58:11;1.63;;;1.50;;
4222;SDS011;2125;51.436;14.138;2022-07-24T15:00:39;2.33;;;1.70;;
4222;SDS011;2125;51.436;14.138;2022-07-24T15:03:06;2.63;;;1.60;;
4222;SDS011;2125;51.436;14.138;2022-07-24T15:05:33;5.83;;;1.70;;
4222;SDS011;2125;51.436;14.138;2022-07-24T15:07:59;1.70;;;1.60;;
4222;SDS011;2125;51.436;14.138;2022-07-24T15:10:26;4.47;;;2.03;;
4222;SDS011;2125;51.436;14.138;2022-07-24T15:12:53;2.40;;;1.83;;
4222;SDS011;2125;51.436;14.138;2022-07-24T15:15:21;2.07;;;1.87;;
4222;SDS011;2125;51.436;14.138;2022-07-24T15:17:47;1.90;;;1.77;;
4222;SDS011;2125;51.436;14.138;2022-07-24T15:20:14;2.23;;;1.73;;
4222;SDS011;2125;51.436;14.138;2022-07-24T15:22:41;2.10;;;1.90;;
4222;SDS011;2125;51.436;14.138;2022-07-24T15:25:08;1.97;;;1.73;;
4222;SDS011;2125;51.436;14.138;2022-07-24T15:27:34;2.27;;;1.83;;
4222;SDS011;2125;51.436;14.138;2022-07-24T15:30:02;1.80;;;1.70;;
4222;SDS011;2125;51.436;14.138;2022-07-24T15:32:31;3.00;;;1.80;;